Time;durP1;ratioP1;P1;durP2;ratioP2;P2;SDS_P1;SDS_P2;PMS_P1;PMS_P2;Temp;Humidity;BMP_temperature;BMP_pressure;BME280_temperature;BME280_humidity;BME280_pressure;Samples;Min_cycle;Max_cycle;Signal;HPM_P1;HPM_P2
2022/02/17 00:01:45;;;;;;;0.60;0.60;;;13.30;99.90;;;;;;4912874;29;20271;-87
2022/02/17 00:04:11;;;;;;;0.67;0.67;;;15.40;99.90;;;;;;4912671;29;20216;-85
2022/02/17 00:06:37;;;;;;;0.90;0.90;;;13.60;99.90;;;;;;4917002;29;20188;-86
2022/02/17 00:09:02;;;;;;;0.80;0.77;;;16.50;99.90;;;;;;4891833;29;20197;-86
2022/02/17 00:11:28;;;;;;;2.40;1.07;;;13.30;99.90;;;;;;4891448;29;20230;-86
2022/02/17 00:13:54;;;;;;;2.20;1.00;;;13.40;99.90;;;;;;4917496;29;20531;-87
2022/02/17 00:16:20;;;;;;;1.10;1.00;;;13.40;99.90;;;;;;4899030;29;20180;-84
2022/02/17 00:18:45;;;;;;;2.57;1.10;;;12.60;99.90;;;;;;4915039;29;20196;-84
2022/02/17 00:21:11;;;;;;;1.13;1.07;;;14.50;99.90;;;;;;4915035;29;20615;-85
2022/02/17 00:23:37;;;;;;;1.33;0.77;;;12.60;99.90;;;;;;4917805;29;20720;-86
2022/02/17 00:26:02;;;;;;;1.80;0.90;;;14.50;99.90;;;;;;4920781;29;20188;-87
2022/02/17 00:28:28;;;;;;;4.20;0.70;;;12.50;99.90;;;;;;4894696;29;20189;-85
2022/02/17 00:30:53;;;;;;;3.40;1.00;;;12.50;99.90;;;;;;4888532;29;20192;-86
2022/02/17 00:33:19;;;;;;;0.60;0.60;;;14.70;99.90;;;;;;4894641;29;20244;-84
2022/02/17 00:35:45;;;;;;;0.97;0.97;;;13.40;99.90;;;;;;4910217;29;20200;-84
2022/02/17 00:38:11;;;;;;;0.83;0.70;;;12.40;99.90;;;;;;4913610;29;20928;-85
2022/02/17 00:40:36;;;;;;;0.80;0.80;;;12.60;99.90;;;;;;4894710;29;20220;-84
2022/02/17 00:43:02;;;;;;;2.23;2.03;;;12.40;99.90;;;;;;4896445;29;20200;-85
2022/02/17 00:45:27;;;;;;;0.60;0.60;;;12.30;99.90;;;;;;4894635;29;20212;-85
2022/02/17 00:47:53;;;;;;;2.93;1.30;;;11.70;99.90;;;;;;4912489;29;20634;-84
2022/02/17 00:50:19;;;;;;;2.20;1.00;;;14.00;99.90;;;;;;4912849;29;20565;-85
2022/02/17 00:52:44;;;;;;;1.33;1.27;;;12.40;99.90;;;;;;4910866;29;20638;-84
2022/02/17 00:55:10;;;;;;;1.70;1.30;;;15.10;99.90;;;;;;4912695;29;20196;-83
2022/02/17 00:57:36;;;;;;;3.23;1.63;;;12.70;99.90;;;;;;4911773;29;20234;-84
2022/02/17 01:00:03;;;;;;;1.83;1.20;;;12.90;99.90;;;;;;4908414;29;20248;-84
2022/02/17 01:02:29;;;;;;;2.27;1.10;;;11.80;99.90;;;;;;4913688;29;20204;-84
2022/02/17 01:04:55;;;;;;;2.27;1.23;;;11.70;99.90;;;;;;4916331;29;20450;-85
2022/02/17 01:07:20;;;;;;;1.20;1.20;;;14.50;99.90;;;;;;4914866;29;20227;-84
2022/02/17 01:09:46;;;;;;;1.80;1.00;;;11.80;99.90;;;;;;4915976;29;20188;-86
2022/02/17 01:12:12;;;;;;;1.10;1.07;;;11.90;99.90;;;;;;4913923;29;20196;-83
2022/02/17 01:14:38;;;;;;;1.43;1.30;;;12.00;99.90;;;;;;4898456;29;20280;-85
2022/02/17 01:17:04;;;;;;;0.60;0.50;;;13.10;99.90;;;;;;4893821;29;20456;-84
2022/02/17 01:19:30;;;;;;;1.80;1.53;;;11.90;99.90;;;;;;4916058;29;20721;-84
2022/02/17 01:21:56;;;;;;;1.23;0.97;;;13.20;99.90;;;;;;4911778;29;20462;-83
2022/02/17 01:24:21;;;;;;;1.50;0.80;;;11.60;99.90;;;;;;4913041;29;20263;-84
2022/02/17 01:26:48;;;;;;;1.13;1.13;;;11.50;99.90;;;;;;4908651;29;20942;-83
2022/02/17 01:29:14;;;;;;;2.00;0.97;;;12.00;99.90;;;;;;4912065;29;20211;-83
2022/02/17 01:31:40;;;;;;;0.53;0.53;;;11.40;99.90;;;;;;4894124;29;20694;-83
2022/02/17 01:34:06;;;;;;;0.90;0.90;;;14.40;99.90;;;;;;4914799;29;20428;-84
2022/02/17 01:36:31;;;;;;;1.87;1.17;;;11.50;99.90;;;;;;4894839;29;20929;-83
2022/02/17 01:38:57;;;;;;;3.53;1.60;;;10.60;99.90;;;;;;4890187;29;20575;-84
2022/02/17 01:41:23;;;;;;;2.03;1.87;;;12.30;99.90;;;;;;4910826;29;20219;-83
2022/02/17 01:43:50;;;;;;;22.83;2.23;;;11.40;99.90;;;;;;4911427;29;20192;-84
2022/02/17 01:46:17;;;;;;;2.87;1.17;;;11.70;99.90;;;;;;4913221;29;20439;-84
2022/02/17 01:48:42;;;;;;;1.60;1.40;;;13.20;99.90;;;;;;4913668;29;20739;-84
2022/02/17 01:51:08;;;;;;;4.20;1.40;;;11.70;99.90;;;;;;4885043;29;20441;-85
2022/02/17 01:53:34;;;;;;;4.43;1.53;;;11.80;99.90;;;;;;4914584;29;20208;-83
2022/02/17 01:56:01;;;;;;;2.53;1.57;;;12.50;99.90;;;;;;4895761;29;20200;-84
2022/02/17 01:58:29;;;;;;;4.25;1.02;;;11.30;99.90;;;;;;4895697;29;20433;-85
2022/02/17 02:00:55;;;;;;;3.13;1.87;;;12.40;99.90;;;;;;4911691;29;20702;-84
2022/02/17 02:03:20;;;;;;;5.90;2.50;;;13.40;99.90;;;;;;4896316;29;20464;-84
2022/02/17 02:05:46;;;;;;;2.23;1.73;;;11.70;99.90;;;;;;4890865;29;21237;-83
2022/02/17 02:08:12;;;;;;;5.27;2.33;;;11.80;99.90;;;;;;4921274;29;20180;-85
2022/02/17 02:10:38;;;;;;;1.90;1.80;;;11.50;99.90;;;;;;4901747;29;20191;-83
2022/02/17 02:13:04;;;;;;;4.17;2.73;;;11.50;99.90;;;;;;4919156;29;20817;-84
2022/02/17 02:15:47;;;;;;;4.07;2.73;;;11.40;99.90;;;;;;4920124;29;20444;-83
2022/02/17 02:18:13;;;;;;;4.93;1.83;;;11.10;99.90;;;;;;4907718;29;20506;-83
2022/02/17 02:20:49;;;;;;;7.67;3.40;;;12.90;99.90;;;;;;4919540;29;20522;-84
2022/02/17 02:23:15;;;;;;;3.80;2.77;;;10.50;99.90;;;;;;4922897;29;20195;-84
2022/02/17 02:25:50;;;;;;;6.57;3.37;;;11.60;99.90;;;;;;4903487;29;20864;-83
2022/02/17 02:28:21;;;;;;;9.47;4.17;;;11.20;99.90;;;;;;4923206;29;20431;-84
2022/02/17 02:30:48;;;;;;;13.03;4.40;;;11.40;99.90;;;;;;4917175;29;20946;-86
2022/02/17 02:33:14;;;;;;;5.27;3.50;;;11.50;99.90;;;;;;4903251;29;20435;-83
2022/02/17 02:35:41;;;;;;;4.97;2.93;;;11.40;99.90;;;;;;4896323;29;20437;-83
2022/02/17 02:38:07;;;;;;;6.70;2.57;;;11.30;99.90;;;;;;4922643;29;20478;-85
2022/02/17 02:40:33;;;;;;;8.73;3.53;;;11.30;99.90;;;;;;4924768;29;20479;-84
2022/02/17 02:42:59;;;;;;;3.13;2.43;;;11.80;99.90;;;;;;4904771;29;20497;-85
2022/02/17 02:45:25;;;;;;;5.70;2.63;;;12.30;99.90;;;;;;4921084;29;20436;-85
2022/02/17 02:47:50;;;;;;;5.33;2.93;;;11.70;99.90;;;;;;4922914;29;20515;-85
2022/02/17 02:50:16;;;;;;;8.63;3.60;;;11.60;99.90;;;;;;4921228;29;20233;-84
2022/02/17 02:52:42;;;;;;;6.17;3.30;;;11.60;99.90;;;;;;4917634;29;20191;-85
2022/02/17 02:55:07;;;;;;;6.90;2.27;;;11.90;99.90;;;;;;4919108;29;20223;-84
2022/02/17 02:57:33;;;;;;;2.97;2.30;;;10.90;99.90;;;;;;4919285;29;20184;-85
2022/02/17 02:59:59;;;;;;;8.93;2.47;;;10.80;99.90;;;;;;4916465;29;20505;-85
2022/02/17 03:02:24;;;;;;;3.40;1.13;;;10.90;99.90;;;;;;4896567;29;20283;-85
2022/02/17 03:04:50;;;;;;;5.70;2.10;;;10.40;99.90;;;;;;4919039;29;20191;-85
2022/02/17 03:07:16;;;;;;;2.83;1.73;;;10.50;99.90;;;;;;4919816;29;20538;-85
2022/02/17 03:09:41;;;;;;;4.10;2.17;;;9.50;99.90;;;;;;4924230;29;20192;-85
2022/02/17 03:12:07;;;;;;;10.47;3.30;;;11.00;99.90;;;;;;4921305;29;20188;-85
2022/02/17 03:14:33;;;;;;;3.83;2.43;;;10.60;99.90;;;;;;4920447;29;20662;-85
2022/02/17 03:17:01;;;;;;;6.43;2.80;;;10.60;99.90;;;;;;4920311;29;20447;-85
2022/02/17 03:21:58;;;;;;;5.30;2.93;;;10.70;99.90;;;;;;4909575;29;20506;-82
2022/02/17 03:24:25;;;;;;;10.40;3.03;;;10.40;99.90;;;;;;4907987;29;20440;-82
2022/02/17 03:26:50;;;;;;;6.10;3.27;;;11.40;99.90;;;;;;4911335;29;20190;-83
2022/02/17 03:29:16;;;;;;;5.97;2.20;;;10.50;99.90;;;;;;4909613;29;20428;-82
2022/02/17 03:31:41;;;;;;;8.33;3.40;;;10.30;99.90;;;;;;4911412;29;20196;-82
2022/02/17 03:34:07;;;;;;;5.77;2.90;;;12.10;99.90;;;;;;4913161;29;20224;-82
2022/02/17 03:36:33;;;;;;;9.20;3.37;;;10.50;99.90;;;;;;4911035;29;20255;-82
2022/02/17 03:38:59;;;;;;;8.97;3.90;;;10.80;99.90;;;;;;4910125;29;20226;-82
2022/02/17 03:41:25;;;;;;;7.10;3.77;;;11.20;99.90;;;;;;4910925;29;20444;-82
2022/02/17 03:43:50;;;;;;;11.57;3.87;;;11.60;99.90;;;;;;4905429;29;20462;-82
2022/02/17 03:46:16;;;;;;;19.00;5.07;;;10.60;99.90;;;;;;4911103;29;20254;-82
2022/02/17 03:48:42;;;;;;;12.67;3.93;;;10.80;99.90;;;;;;4907253;29;20539;-81
2022/02/17 03:51:07;;;;;;;8.73;4.33;;;10.80;99.90;;;;;;4909745;29;20211;-82
2022/02/17 03:53:33;;;;;;;11.40;3.40;;;10.60;99.90;;;;;;4903970;29;20181;-82
2022/02/17 03:55:58;;;;;;;10.30;3.33;;;13.30;99.90;;;;;;4910896;29;20870;-82
2022/02/17 04:01:08;;;;;;;2.90;1.70;;;11.20;99.90;;;;;;4904091;29;20230;-83
2022/02/17 04:03:34;;;;;;;5.00;2.37;;;13.00;99.90;;;;;;4904756;29;20464;-84
2022/02/17 04:06:00;;;;;;;11.03;2.43;;;12.70;99.90;;;;;;4893189;29;20752;-82
2022/02/17 04:08:25;;;;;;;7.50;2.83;;;11.00;99.90;;;;;;4904695;29;20682;-81
2022/02/17 04:10:51;;;;;;;12.97;2.87;;;11.10;99.90;;;;;;4910141;29;20402;-83
2022/02/17 04:13:17;;;;;;;9.90;3.30;;;11.30;99.90;;;;;;4912920;29;20187;-82
2022/02/17 04:15:42;;;;;;;7.97;3.40;;;11.00;99.90;;;;;;4906324;29;20192;-83
2022/02/17 04:18:08;;;;;;;5.73;2.60;;;10.90;99.90;;;;;;4912515;29;20168;-82
2022/02/17 04:20:33;;;;;;;5.47;2.93;;;11.50;99.90;;;;;;4896159;29;20237;-82
2022/02/17 04:22:59;;;;;;;8.80;2.70;;;11.50;99.90;;;;;;4891864;29;20208;-82
2022/02/17 04:25:25;;;;;;;8.70;2.93;;;10.60;99.90;;;;;;4876616;29;21045;-82
2022/02/17 04:27:50;;;;;;;9.63;4.00;;;10.80;99.90;;;;;;4891775;29;20205;-81
2022/02/17 04:30:16;;;;;;;11.30;2.93;;;10.30;99.90;;;;;;4885191;29;20674;-82
2022/02/17 04:32:41;;;;;;;9.33;3.13;;;10.90;99.90;;;;;;4891888;29;20713;-82
2022/02/17 04:35:07;;;;;;;13.73;2.30;;;10.10;99.90;;;;;;4891158;29;20542;-81
2022/02/17 04:37:33;;;;;;;11.57;3.60;;;10.30;99.90;;;;;;4890048;29;20197;-81
2022/02/17 04:40:00;;;;;;;8.60;2.53;;;10.40;99.90;;;;;;4875647;29;20481;-82
2022/02/17 04:42:27;;;;;;;11.33;3.80;;;10.60;99.90;;;;;;4874231;29;20604;-83
2022/02/17 04:44:53;;;;;;;10.50;3.10;;;10.50;99.90;;;;;;4892992;29;20437;-81
2022/02/17 04:47:19;;;;;;;10.03;5.20;;;11.90;99.90;;;;;;4891283;29;20963;-82
2022/02/17 04:49:45;;;;;;;14.37;3.37;;;11.70;99.90;;;;;;4891211;29;20448;-81
2022/02/17 04:52:11;;;;;;;13.27;4.20;;;10.70;99.90;;;;;;4882083;29;20442;-81
2022/02/17 04:54:37;;;;;;;6.27;3.13;;;10.60;99.90;;;;;;4884170;29;20946;-81
2022/02/17 04:57:06;;;;;;;7.97;3.27;;;10.80;99.90;;;;;;4890885;29;20437;-81
2022/02/17 04:59:33;;;;;;;10.33;2.93;;;10.90;99.90;;;;;;4893569;29;20589;-82
2022/02/17 05:01:58;;;;;;;14.13;4.23;;;10.60;99.90;;;;;;4891567;29;20887;-81
2022/02/17 05:04:24;;;;;;;17.23;4.20;;;10.50;99.90;;;;;;4893965;29;20472;-81
2022/02/17 05:06:49;;;;;;;11.33;4.00;;;10.80;99.90;;;;;;4892277;29;20215;-81
2022/02/17 05:09:15;;;;;;;8.03;3.00;;;10.70;99.90;;;;;;4876878;29;20665;-81
2022/02/17 05:11:41;;;;;;;12.13;3.70;;;10.30;99.90;;;;;;4889449;29;20207;-81
2022/02/17 05:14:06;;;;;;;8.73;2.90;;;10.50;99.90;;;;;;4879191;29;20200;-81
2022/02/17 05:16:32;;;;;;;12.00;2.90;;;12.20;99.90;;;;;;4893420;29;20647;-83
2022/02/17 05:18:58;;;;;;;6.10;2.50;;;10.70;99.90;;;;;;4891495;29;20211;-79
2022/02/17 05:21:24;;;;;;;16.63;3.90;;;10.40;99.90;;;;;;4890184;29;20236;-81
2022/02/17 05:23:50;;;;;;;13.50;5.10;;;10.80;99.90;;;;;;4890478;29;20437;-81
2022/02/17 05:26:16;;;;;;;9.40;2.70;;;10.20;99.90;;;;;;4885611;29;20441;-81
2022/02/17 05:28:41;;;;;;;8.63;3.07;;;10.20;99.90;;;;;;4883259;29;20193;-80
2022/02/17 05:31:07;;;;;;;12.30;2.80;;;10.80;99.90;;;;;;4892474;29;20268;-81
2022/02/17 05:33:33;;;;;;;8.73;3.43;;;10.70;99.90;;;;;;4890713;29;20264;-82
2022/02/17 05:35:58;;;;;;;11.10;3.03;;;10.80;99.90;;;;;;4892294;29;20200;-81
2022/02/17 05:38:24;;;;;;;12.97;3.50;;;11.40;99.90;;;;;;4890057;29;20444;-81
2022/02/17 05:40:50;;;;;;;9.60;3.30;;;11.50;99.90;;;;;;4889875;29;20689;-81
2022/02/17 05:43:16;;;;;;;10.07;3.20;;;11.50;99.90;;;;;;4887015;29;20197;-82
2022/02/17 05:45:41;;;;;;;15.43;3.70;;;10.50;99.90;;;;;;4888972;29;20200;-81
2022/02/17 05:48:07;;;;;;;15.23;3.93;;;10.70;99.90;;;;;;4886366;29;20268;-83
2022/02/17 05:50:33;;;;;;;12.70;3.57;;;10.90;99.90;;;;;;4209761;29;10001507;-81
2022/02/17 05:52:59;;;;;;;7.10;2.90;;;10.60;99.90;;;;;;4887428;29;20685;-83
2022/02/17 05:55:26;;;;;;;12.30;3.93;;;10.80;99.90;;;;;;4887736;29;20449;-81
2022/02/17 05:57:52;;;;;;;12.33;5.17;;;10.60;99.90;;;;;;4887784;29;20449;-82
2022/02/17 06:00:19;;;;;;;9.97;3.50;;;11.40;99.90;;;;;;4871278;29;20481;-82
2022/02/17 06:02:45;;;;;;;16.93;5.27;;;10.70;99.90;;;;;;4888427;29;20184;-83
2022/02/17 06:05:12;;;;;;;15.03;3.73;;;10.20;99.90;;;;;;4882685;29;20512;-82
2022/02/17 06:07:39;;;;;;;12.20;4.10;;;10.70;99.90;;;;;;4854046;29;20484;-82
2022/02/17 06:10:05;;;;;;;14.57;3.27;;;10.50;99.90;;;;;;4884179;29;20515;-82
2022/02/17 06:12:31;;;;;;;17.60;5.30;;;10.80;99.90;;;;;;4871835;29;20548;-83
2022/02/17 06:14:58;;;;;;;13.83;3.60;;;10.70;99.90;;;;;;4884340;29;20452;-83
2022/02/17 06:17:27;;;;;;;18.97;3.30;;;11.70;99.90;;;;;;4888395;29;20448;-83
2022/02/17 06:19:52;;;;;;;10.90;3.40;;;10.80;99.90;;;;;;4883913;29;20496;-82
2022/02/17 06:22:18;;;;;;;4.50;1.93;;;10.40;99.90;;;;;;4888475;29;20679;-80
2022/02/17 06:24:43;;;;;;;14.17;4.13;;;10.70;99.90;;;;;;4887023;29;20275;-81
2022/02/17 06:27:09;;;;;;;11.07;4.10;;;11.50;99.90;;;;;;4881369;29;20260;-83
2022/02/17 06:29:34;;;;;;;9.47;3.43;;;10.30;99.90;;;;;;4886311;29;20197;-83
2022/02/17 06:32:00;;;;;;;11.83;4.50;;;10.70;99.90;;;;;;4890965;29;20215;-82
2022/02/17 06:34:26;;;;;;;12.50;4.20;;;11.80;99.90;;;;;;4889305;29;20548;-82
2022/02/17 06:36:51;;;;;;;20.60;5.10;;;12.50;99.90;;;;;;4881319;29;20193;-79
2022/02/17 06:39:17;;;;;;;26.40;5.93;;;9.80;99.90;;;;;;4889923;29;20216;-82
2022/02/17 06:41:43;;;;;;;3.83;2.20;;;10.30;99.90;;;;;;4892705;29;20191;-82
2022/02/17 06:44:10;;;;;;;12.50;4.33;;;9.90;99.90;;;;;;4889985;29;20197;-82
2022/02/17 06:46:35;;;;;;;9.95;2.75;;;10.40;99.90;;;;;;4885899;29;20189;-83
2022/02/17 06:49:01;;;;;;;10.00;3.57;;;10.30;99.90;;;;;;4868840;29;20210;-79
2022/02/17 06:51:27;;;;;;;17.20;3.57;;;10.30;99.90;;;;;;4883514;29;20200;-81
2022/02/17 06:53:53;;;;;;;17.27;4.60;;;10.40;99.90;;;;;;4886848;29;20433;-81
2022/02/17 06:56:20;;;;;;;13.17;3.40;;;10.40;99.90;;;;;;4889930;29;20496;-82
2022/02/17 06:58:46;;;;;;;12.00;3.40;;;13.70;99.90;;;;;;4889230;29;20448;-82
2022/02/17 07:01:12;;;;;;;11.17;3.70;;;10.00;99.90;;;;;;4891410;29;20934;-83
2022/02/17 07:03:38;;;;;;;10.60;3.63;;;9.90;99.90;;;;;;4886969;29;20529;-82
2022/02/17 07:06:04;;;;;;;13.17;4.47;;;11.50;99.90;;;;;;4890906;29;20485;-81
2022/02/17 07:08:30;;;;;;;13.07;3.97;;;10.20;99.90;;;;;;4889633;29;20827;-82
2022/02/17 07:10:56;;;;;;;12.83;4.30;;;11.50;99.90;;;;;;4888982;29;20426;-82
2022/02/17 07:13:29;;;;;;;12.93;4.03;;;10.10;99.90;;;;;;4544354;29;10000663;-81
2022/02/17 07:15:56;;;;;;;9.37;2.73;;;10.20;99.90;;;;;;4881855;29;20204;-83
2022/02/17 07:18:22;;;;;;;12.13;3.43;;;10.20;99.90;;;;;;4878798;29;20453;-80
2022/02/17 07:20:49;;;;;;;8.03;3.83;;;10.20;99.90;;;;;;4884459;29;20477;-81
2022/02/17 07:23:16;;;;;;;13.90;4.17;;;10.10;99.90;;;;;;4881464;29;20463;-81
2022/02/17 07:25:43;;;;;;;9.87;3.30;;;10.00;99.90;;;;;;4886137;29;21029;-80
2022/02/17 07:28:08;;;;;;;12.87;3.90;;;10.20;99.90;;;;;;4884982;29;21092;-80
2022/02/17 07:30:38;;;;;;;8.37;3.27;;;10.50;99.90;;;;;;4883962;29;20465;-80
2022/02/17 07:33:05;;;;;;;6.40;2.33;;;10.00;99.90;;;;;;4871182;29;20220;-79
2022/02/17 07:35:31;;;;;;;3.30;1.40;;;9.90;99.90;;;;;;4889681;29;20982;-81
2022/02/17 07:37:57;;;;;;;7.20;3.40;;;10.10;99.90;;;;;;4890112;29;20524;-80
2022/02/17 07:40:23;;;;;;;9.50;2.80;;;9.80;99.90;;;;;;4887154;29;20574;-83
2022/02/17 07:42:49;;;;;;;6.03;1.97;;;10.00;99.90;;;;;;4891843;29;20432;-80
2022/02/17 07:45:15;;;;;;;8.27;3.00;;;11.10;99.90;;;;;;4884284;29;20508;-79
2022/02/17 07:47:45;;;;;;;6.63;2.63;;;10.60;99.90;;;;;;4888695;29;20624;-79
2022/02/17 07:50:15;;;;;;;9.37;3.10;;;10.20;99.90;;;;;;4890246;29;20516;-80
2022/02/17 07:52:41;;;;;;;8.03;2.07;;;10.50;99.90;;;;;;4888486;29;20459;-80
2022/02/17 07:55:07;;;;;;;10.30;3.20;;;11.30;99.90;;;;;;4887600;29;20457;-79
2022/02/17 07:57:33;;;;;;;6.30;2.53;;;10.20;99.90;;;;;;4872243;29;20950;-80
2022/02/17 07:59:58;;;;;;;15.10;3.97;;;10.10;99.90;;;;;;4878120;29;20500;-80
2022/02/17 08:02:24;;;;;;;7.70;3.00;;;10.00;99.90;;;;;;4870740;29;20245;-80
2022/02/17 08:04:50;;;;;;;6.77;3.03;;;11.30;99.90;;;;;;4883881;29;20807;-79
2022/02/17 08:07:15;;;;;;;6.20;1.87;;;10.10;99.90;;;;;;4873349;29;20268;-78
2022/02/17 08:09:41;;;;;;;10.17;3.77;;;10.30;99.90;;;;;;4888369;29;20208;-80
2022/02/17 08:12:07;;;;;;;12.13;3.23;;;10.20;99.90;;;;;;4890499;29;20200;-80
2022/02/17 08:14:32;;;;;;;13.40;3.50;;;10.30;99.90;;;;;;4876690;29;20200;-79
2022/02/17 08:16:58;;;;;;;5.70;2.20;;;12.80;99.90;;;;;;4873468;29;21233;-80
2022/02/17 08:19:23;;;;;;;2.33;1.97;;;10.70;99.90;;;;;;4888116;29;20575;-80
2022/02/17 08:21:49;;;;;;;12.30;2.27;;;10.20;99.90;;;;;;4890710;29;20319;-80
2022/02/17 08:24:16;;;;;;;11.60;3.13;;;10.60;99.90;;;;;;4889612;29;20201;-81
2022/02/17 08:26:42;;;;;;;10.53;2.90;;;10.40;99.90;;;;;;4889477;29;20647;-82
2022/02/17 08:29:08;;;;;;;7.90;2.37;;;11.10;99.90;;;;;;4886243;29;20453;-81
2022/02/17 08:31:42;;;;;;;7.10;2.50;;;10.70;99.90;;;;;;4892059;29;20507;-78
2022/02/17 08:34:09;;;;;;;16.67;4.17;;;10.90;99.90;;;;;;4879126;29;20599;-81
2022/02/17 08:36:35;;;;;;;13.00;3.60;;;10.70;99.90;;;;;;4877154;29;20795;-82
2022/02/17 08:39:02;;;;;;;6.07;2.40;;;12.60;99.90;;;;;;4891861;29;20441;-82
2022/02/17 08:41:27;;;;;;;7.10;2.83;;;10.90;99.90;;;;;;4890482;29;20473;-81
2022/02/17 08:43:53;;;;;;;18.17;3.33;;;11.00;99.90;;;;;;4552525;29;10000024;-81
2022/02/17 08:46:20;;;;;;;9.00;3.87;;;10.60;99.90;;;;;;4887566;29;20223;-82
2022/02/17 08:48:46;;;;;;;12.30;3.20;;;11.10;99.90;;;;;;4871541;29;20177;-79
2022/02/17 08:51:13;;;;;;;8.80;3.83;;;10.40;99.90;;;;;;4856429;29;20502;-80
2022/02/17 08:53:39;;;;;;;6.63;2.30;;;10.60;99.90;;;;;;4873610;29;20418;-79
2022/02/17 08:56:07;;;;;;;9.60;1.80;;;10.20;99.90;;;;;;4874613;29;20426;-79
2022/02/17 08:58:33;;;;;;;9.57;2.27;;;10.70;99.90;;;;;;4889221;29;20609;-79
2022/02/17 09:00:59;;;;;;;6.17;1.53;;;12.20;99.90;;;;;;4876257;29;20515;-82
2022/02/17 09:03:25;;;;;;;18.57;2.50;;;10.70;99.90;;;;;;4881635;29;20235;-80
2022/02/17 09:05:51;;;;;;;5.90;2.60;;;12.00;99.90;;;;;;4874641;29;20474;-80
2022/02/17 09:08:16;;;;;;;8.13;2.27;;;10.50;96.90;;;;;;4880418;29;20256;-79
2022/02/17 09:10:42;;;;;;;8.33;2.33;;;10.60;98.00;;;;;;4893497;29;20591;-80
2022/02/17 09:13:08;;;;;;;8.63;2.47;;;11.30;97.60;;;;;;4883396;29;21033;-80
2022/02/17 09:15:35;;;;;;;4.60;3.10;;;11.60;99.90;;;;;;4883197;29;20173;-83
2022/02/17 09:18:01;;;;;;;4.13;1.90;;;10.80;99.90;;;;;;4884200;29;20497;-80
2022/02/17 09:20:29;;;;;;;4.57;2.30;;;10.20;99.90;;;;;;4873620;29;20999;-80
2022/02/17 09:22:54;;;;;;;8.00;3.33;;;10.70;99.90;;;;;;4879607;29;20441;-82
2022/02/17 09:25:20;;;;;;;12.43;3.30;;;8.70;99.90;;;;;;4894159;29;20428;-80
2022/02/17 09:27:49;;;;;;;5.33;2.03;;;8.30;99.90;;;;;;4885300;29;20646;-82
2022/02/17 09:30:14;;;;;;;9.77;2.92;;;9.30;99.90;;;;;;4539653;29;9999777;-81
2022/02/17 09:32:40;;;;;;;13.83;4.57;;;10.10;99.90;;;;;;4872423;29;20185;-80
2022/02/17 09:35:10;;;;;;;4.50;2.20;;;11.20;99.90;;;;;;4887646;29;20324;-82
2022/02/17 09:37:35;;;;;;;10.47;3.03;;;10.30;99.90;;;;;;4889753;29;20909;-80
2022/02/17 09:40:01;;;;;;;5.80;2.90;;;10.30;99.90;;;;;;4883342;29;20504;-80
2022/02/17 09:42:34;;;;;;;8.40;2.63;;;11.30;99.90;;;;;;4870725;29;20221;-82
2022/02/17 09:45:00;;;;;;;10.77;2.13;;;9.30;99.90;;;;;;4873143;29;20284;-80
2022/02/17 09:47:26;;;;;;;4.80;2.10;;;11.80;99.90;;;;;;4890085;29;20859;-80
2022/02/17 09:49:52;;;;;;;7.10;2.50;;;10.30;99.90;;;;;;4884682;29;20681;-80
2022/02/17 09:54:53;;;;;;;2.57;1.80;;;10.30;99.90;;;;;;4888172;29;20985;-83
2022/02/17 09:57:22;;;;;;;4.47;2.00;;;10.70;99.90;;;;;;4873625;29;20527;-84
2022/02/17 09:59:57;;;;;;;2.60;2.00;;;11.50;99.90;;;;;;4907436;29;20547;-82
2022/02/17 10:02:26;;;;;;;11.90;2.37;;;11.70;99.90;;;;;;4911158;29;20422;-82
2022/02/17 10:04:53;;;;;;;8.87;3.90;;;12.50;99.90;;;;;;4888893;29;20440;-81
2022/02/17 10:07:30;;;;;;;4.03;2.63;;;13.00;97.50;;;;;;4907348;29;20428;-84
2022/02/17 10:10:10;;;;;;;6.53;3.03;;;12.40;94.80;;;;;;4909672;29;20579;-83
2022/02/17 10:13:04;;;;;;;15.07;5.43;;;12.00;98.40;;;;;;4900106;29;20445;-82
2022/02/17 10:15:38;;;;;;;5.20;2.10;;;12.00;95.80;;;;;;4900652;29;20864;-84
2022/02/17 10:18:14;;;;;;;2.77;1.40;;;11.50;97.60;;;;;;4895808;29;20812;-84
2022/02/17 10:20:53;;;;;;;5.27;2.70;;;11.10;91.30;;;;;;4903311;29;20507;-82
2022/02/17 10:23:27;;;;;;;3.30;2.07;;;10.90;92.30;;;;;;4893706;29;20927;-82
2022/02/17 10:26:09;;;;;;;6.10;2.40;;;11.10;93.30;;;;;;4912292;29;20845;-83
2022/02/17 10:28:40;;;;;;;6.83;3.07;;;10.80;96.30;;;;;;4895671;29;20432;-83
2022/02/17 10:31:08;;;;;;;7.30;2.27;;;11.50;96.80;;;;;;4912663;29;20447;-82
2022/02/17 10:33:45;;;;;;;5.40;2.30;;;11.70;97.00;;;;;;4894368;29;20456;-83
2022/02/17 10:36:13;;;;;;;5.00;1.97;;;11.30;95.00;;;;;;4921096;29;20451;-82
2022/02/17 10:38:40;;;;;;;4.37;1.87;;;13.40;95.90;;;;;;4897915;29;20796;-83
2022/02/17 10:41:05;;;;;;;2.93;2.03;;;12.70;92.00;;;;;;4895622;29;20507;-84
2022/02/17 10:43:32;;;;;;;2.03;1.80;;;13.50;88.00;;;;;;4908914;29;20436;-83
2022/02/17 10:46:07;;;;;;;2.03;1.50;;;11.40;88.60;;;;;;4912107;29;20246;-82
2022/02/17 10:48:34;;;;;;;5.27;1.30;;;13.90;86.80;;;;;;4876263;29;20440;-82
2022/02/17 10:51:11;;;;;;;1.80;1.40;;;11.10;79.20;;;;;;4910233;29;20491;-82
2022/02/17 10:53:45;;;;;;;8.67;1.80;;;12.00;74.20;;;;;;4897708;29;20463;-83
2022/02/17 10:56:12;;;;;;;5.93;1.70;;;13.50;62.60;;;;;;4909438;29;20431;-82
2022/02/17 10:58:46;;;;;;;4.13;1.57;;;14.80;56.30;;;;;;4872723;29;20866;-83
2022/02/17 11:01:12;;;;;;;3.30;1.40;;;15.70;55.00;;;;;;4888109;29;21091;-83
2022/02/17 11:03:39;;;;;;;2.83;1.63;;;17.40;54.70;;;;;;4887542;29;20417;-83
2022/02/17 11:06:06;;;;;;;9.00;2.07;;;16.80;53.20;;;;;;4890750;29;20451;-83
2022/02/17 11:08:32;;;;;;;3.10;2.20;;;14.40;52.30;;;;;;4899127;29;20432;-83
2022/02/17 11:10:59;;;;;;;3.20;1.50;;;14.00;53.10;;;;;;4896888;29;20454;-83
2022/02/17 11:13:26;;;;;;;3.63;1.67;;;14.70;54.00;;;;;;4902487;29;20429;-83
2022/02/17 11:15:56;;;;;;;3.83;1.63;;;15.40;54.50;;;;;;4892350;29;20453;-82
2022/02/17 11:18:23;;;;;;;0.90;0.90;;;14.70;53.40;;;;;;4893142;29;20421;-83
2022/02/17 11:20:51;;;;;;;5.60;2.00;;;13.90;52.70;;;;;;4883198;29;20481;-84
2022/02/17 11:23:19;;;;;;;4.47;1.20;;;16.50;53.60;;;;;;4894589;29;20513;-81
2022/02/17 11:25:46;;;;;;;2.10;1.70;;;15.40;51.60;;;;;;4903151;29;20891;-82
2022/02/17 11:28:16;;;;;;;3.60;1.57;;;14.70;52.30;;;;;;4912546;29;20429;-82
2022/02/17 11:30:56;;;;;;;4.57;2.00;;;13.40;53.50;;;;;;4876454;29;20453;-83
2022/02/17 11:33:28;;;;;;;7.13;1.67;;;12.60;57.20;;;;;;4892960;29;20441;-84
2022/02/17 11:36:02;;;;;;;3.50;1.60;;;12.10;59.20;;;;;;4893965;29;20939;-83
2022/02/17 11:38:32;;;;;;;3.20;1.70;;;11.90;59.60;;;;;;4882087;29;20437;-84
2022/02/17 11:40:59;;;;;;;7.13;4.03;;;11.50;62.50;;;;;;4193501;29;10000712;-85
2022/02/17 11:43:31;;;;;;;6.20;2.47;;;11.20;68.90;;;;;;4890170;29;20193;-86
2022/02/17 11:45:57;;;;;;;5.80;2.10;;;11.60;76.00;;;;;;4893435;29;20428;-84
2022/02/17 11:48:56;;;;;;;4.73;2.30;;;11.50;73.90;;;;;;4884344;29;21952;-84
2022/02/17 11:51:24;;;;;;;2.40;1.50;;;11.70;77.50;;;;;;4862604;29;20220;-84
2022/02/17 11:54:17;;;;;;;4.13;2.50;;;11.30;79.90;;;;;;4891327;29;20477;-81
2022/02/17 11:56:50;;;;;;;2.00;1.40;;;11.50;77.10;;;;;;4878830;29;20786;-84
2022/02/17 11:59:25;;;;;;;3.93;1.53;;;11.90;70.90;;;;;;4878844;29;20481;-84
2022/02/17 12:02:05;;;;;;;1.83;1.10;;;12.50;66.00;;;;;;4900173;29;20453;-86
2022/02/17 12:04:32;;;;;;;1.90;1.57;;;12.10;67.30;;;;;;4890803;29;20472;-85
2022/02/17 12:07:06;;;;;;;1.00;1.00;;;12.30;65.50;;;;;;4885642;29;20410;-83
2022/02/17 12:09:35;;;;;;;2.43;1.37;;;12.80;64.00;;;;;;4893128;29;20529;-82
2022/02/17 12:12:16;;;;;;;2.00;1.27;;;12.50;61.90;;;;;;4885273;29;20508;-84
2022/02/17 12:14:55;;;;;;;1.90;1.70;;;12.90;58.50;;;;;;4873429;29;20457;-82
2022/02/17 12:17:39;;;;;;;1.53;1.23;;;13.20;59.10;;;;;;4876669;29;20433;-84
2022/02/17 12:20:13;;;;;;;3.67;1.10;;;13.50;56.40;;;;;;4889698;29;20480;-85
2022/02/17 12:22:49;;;;;;;2.17;2.07;;;15.30;56.40;;;;;;4877295;29;20426;-85
2022/02/17 12:25:22;;;;;;;2.20;1.90;;;13.20;58.50;;;;;;4895121;29;20822;-85
2022/02/17 12:27:59;;;;;;;4.50;1.70;;;12.70;58.70;;;;;;4904133;29;20440;-83
2022/02/17 12:30:35;;;;;;;1.27;0.97;;;12.80;59.30;;;;;;4874990;29;20418;-84
2022/02/17 12:33:20;;;;;;;3.33;1.83;;;12.40;60.80;;;;;;4890388;29;20636;-84
2022/02/17 12:35:58;;;;;;;1.37;0.90;;;12.40;57.30;;;;;;4884635;29;20460;-84
2022/02/17 12:38:35;;;;;;;2.37;2.17;;;13.10;59.30;;;;;;4889835;29;20432;-84
2022/02/17 12:41:11;;;;;;;2.70;1.87;;;13.60;57.80;;;;;;4880026;29;20485;-85
2022/02/17 12:43:45;;;;;;;2.40;1.07;;;14.20;55.90;;;;;;4892630;29;20441;-85
2022/02/17 12:46:16;;;;;;;4.50;1.43;;;14.90;54.40;;;;;;4892300;29;20448;-84
2022/02/17 12:48:45;;;;;;;5.20;3.60;;;14.30;56.20;;;;;;4876894;29;20433;-82
2022/02/17 12:51:29;;;;;;;3.10;1.30;;;13.30;56.20;;;;;;4891801;29;20432;-85
2022/02/17 12:53:57;;;;;;;4.33;1.53;;;15.00;57.10;;;;;;4892523;29;20460;-84